Sunday, June 17, 2018, 10:14 PM EDT
Back to Local

KTAN, Taunton Municipal Airport

Location: East Taunton, MA, United States Lat: 41.883
Local Time: 10:14 PM EDT ( 2:14 GMT) Lon: -71.017
Time Zone: US/Eastern Elev: 42 ft

Show me the last for .
Show Decoded

2018-06-17 21:52 METAR KTAN 180152Z AUTO 15005KT 10SM CLR 20/14 A3007 RMK AO2 SLP181 T02000144 =
2018-06-17 20:52 METAR KTAN 180052Z AUTO 14005KT 10SM CLR 22/14 A3006 RMK AO2 SLP179 T02170139 =
2018-06-17 19:52 METAR KTAN 172352Z AUTO 14005KT 10SM CLR 23/13 A3007 RMK AO2 SLP182 T02330133
                 10322 20233 53006 =
2018-06-17 18:52 METAR KTAN 172252Z AUTO 15005KT 10SM CLR 26/13 A3007 RMK AO2 SLP180 T02610128 =
2018-06-17 17:52 METAR KTAN 172152Z AUTO 18008KT 10SM CLR 28/11 A3005 RMK AO2 SLP174 T02780111 =
2018-06-17 16:52 METAR KTAN 172052Z AUTO 22007KT 10SM CLR 29/11 A3005 RMK AO2 SLP175 T02940111
                 53006 =
2018-06-17 15:52 METAR KTAN 171952Z AUTO 22010G16KT 10SM FEW075 31/13 A3004 RMK AO2 SLP172
                 T03060128 =
2018-06-17 14:52 METAR KTAN 171852Z AUTO VRB03KT 10SM CLR 32/11 A3003 RMK AO2 SLP169 T03170111 =
2018-06-17 13:52 METAR KTAN 171752Z AUTO VRB04KT 10SM CLR 31/12 A3003 RMK AO2 SLP169 T03110117
                 10317 20206 58014 =
2018-06-17 12:52 METAR KTAN 171652Z AUTO 00000KT 10SM CLR 31/11 A3005 RMK AO2 SLP173 T03060111 =
2018-06-17 11:52 METAR KTAN 171552Z AUTO VRB03KT 10SM CLR 30/12 A3008 RMK AO2 SLP183 T03000117 =
2018-06-17 10:52 METAR KTAN 171452Z AUTO 28003KT 10SM CLR 29/12 A3007 RMK AO2 SLP183 T02940122
                 51008 =
2018-06-17 09:52 METAR KTAN 171352Z AUTO 00000KT 10SM CLR 27/13 A3007 RMK AO2 SLP181 T02720128 =
2018-06-17 08:52 METAR KTAN 171252Z AUTO 00000KT 10SM CLR 24/13 A3006 RMK AO2 SLP179 T02440133 =
2018-06-17 07:52 METAR KTAN 171152Z AUTO 00000KT 10SM CLR 21/14 A3005 RMK AO2 SLP174 T02060139
                 10211 20106 51008 =
2018-06-17 06:52 METAR KTAN 171052Z AUTO 00000KT 10SM CLR 16/14 A3004 RMK AO2 SLP172 T01610139 =
2018-06-17 05:52 METAR KTAN 170952Z AUTO 8SM CLR 12/11 A3003 RMK AO2 SLP169 T01170111 =
2018-06-17 04:52 METAR KTAN 170852Z AUTO 00000KT 5SM BR CLR 11/11 A3003 RMK AO2 SLP166 T01110106
                 53009 =
2018-06-17 03:52 METAR KTAN 170752Z AUTO 00000KT 9SM CLR 11/11 A3001 RMK AO2 SLP162 T01110106 =
2018-06-17 02:52 METAR KTAN 170652Z AUTO 00000KT 9SM CLR 12/11 A3000 RMK AO2 SLP157 T01170106 =
2018-06-17 01:52 METAR KTAN 170552Z AUTO 00000KT 10SM CLR 12/11 A3000 RMK AO2 SLP157 T01220111
                 10228 20117 50002 =
2018-06-17 00:52 METAR KTAN 170452Z AUTO 00000KT 10SM CLR 13/12 A3000 RMK AO2 SLP159 T01280117
                 403000117 =
2018-06-16 23:52 METAR KTAN 170352Z AUTO 00000KT 10SM CLR 14/12 A3000 RMK AO2 SLP159 T01390122 =
2018-06-16 22:52 METAR KTAN 170252Z AUTO 00000KT 10SM CLR 16/13 A2999 RMK AO2 SLP155 T01560128
                 51017 =

Support USWX by starting your Amazon purchase here.